sensor_id;sensor_type;location;lat;lon;timestamp;temperature;humidity
14349;DHT22;7258;50.376;8.742;2023-08-06T00:00:38;16.40;99.90
14349;DHT22;7258;50.376;8.742;2023-08-06T00:02:42;16.40;99.90
14349;DHT22;7258;50.376;8.742;2023-08-06T00:04:45;16.30;99.90
14349;DHT22;7258;50.376;8.742;2023-08-06T00:06:48;16.40;99.90
14349;DHT22;7258;50.376;8.742;2023-08-06T00:08:50;16.40;99.90
14349;DHT22;7258;50.376;8.742;2023-08-06T00:10:53;16.40;99.90
14349;DHT22;7258;50.376;8.742;2023-08-06T00:12:56;16.40;99.90
14349;DHT22;7258;50.376;8.742;2023-08-06T00:14:58;16.30;99.90
14349;DHT22;7258;50.376;8.742;2023-08-06T00:17:01;16.30;99.90
14349;DHT22;7258;50.376;8.742;2023-08-06T00:19:04;16.30;99.90
14349;DHT22;7258;50.376;8.742;2023-08-06T00:21:09;16.30;99.90
14349;DHT22;7258;50.376;8.742;2023-08-06T00:23:14;16.30;99.90
14349;DHT22;7258;50.376;8.742;2023-08-06T00:25:17;16.40;99.90
14349;DHT22;7258;50.376;8.742;2023-08-06T00:27:19;16.30;99.90
14349;DHT22;7258;50.376;8.742;2023-08-06T00:29:21;16.30;99.90
14349;DHT22;7258;50.376;8.742;2023-08-06T00:31:24;16.30;99.90
14349;DHT22;7258;50.376;8.742;2023-08-06T00:33:27;16.30;99.90
14349;DHT22;7258;50.376;8.742;2023-08-06T00:35:32;16.30;99.90
14349;DHT22;7258;50.376;8.742;2023-08-06T00:37:36;16.30;99.90
14349;DHT22;7258;50.376;8.742;2023-08-06T00:39:39;16.40;99.90
14349;DHT22;7258;50.376;8.742;2023-08-06T00:41:42;16.30;99.90
14349;DHT22;7258;50.376;8.742;2023-08-06T00:43:44;16.30;99.90
14349;DHT22;7258;50.376;8.742;2023-08-06T00:45:47;16.20;99.90
14349;DHT22;7258;50.376;8.742;2023-08-06T00:47:50;16.20;99.90
14349;DHT22;7258;50.376;8.742;2023-08-06T00:49:54;16.20;99.90
14349;DHT22;7258;50.376;8.742;2023-08-06T00:51:57;16.10;99.90
14349;DHT22;7258;50.376;8.742;2023-08-06T00:54:02;16.10;99.90
14349;DHT22;7258;50.376;8.742;2023-08-06T00:56:05;16.10;99.90
14349;DHT22;7258;50.376;8.742;2023-08-06T00:58:08;16.00;99.90
14349;DHT22;7258;50.376;8.742;2023-08-06T01:00:12;16.10;99.90
14349;DHT22;7258;50.376;8.742;2023-08-06T01:02:15;16.10;99.90
14349;DHT22;7258;50.376;8.742;2023-08-06T01:04:18;16.10;99.90
14349;DHT22;7258;50.376;8.742;2023-08-06T01:06:39;16.10;99.90
14349;DHT22;7258;50.376;8.742;2023-08-06T01:08:50;16.10;99.90
14349;DHT22;7258;50.376;8.742;2023-08-06T01:11:04;16.10;99.90
14349;DHT22;7258;50.376;8.742;2023-08-06T01:13:16;16.00;99.90
14349;DHT22;7258;50.376;8.742;2023-08-06T01:15:26;16.10;99.90
14349;DHT22;7258;50.376;8.742;2023-08-06T01:17:34;16.00;99.90
14349;DHT22;7258;50.376;8.742;2023-08-06T01:19:38;16.00;99.90
14349;DHT22;7258;50.376;8.742;2023-08-06T01:21:42;16.00;99.90
14349;DHT22;7258;50.376;8.742;2023-08-06T01:23:45;16.00;99.90
14349;DHT22;7258;50.376;8.742;2023-08-06T01:25:55;16.00;99.90
14349;DHT22;7258;50.376;8.742;2023-08-06T01:28:04;16.00;99.90
14349;DHT22;7258;50.376;8.742;2023-08-06T01:30:12;16.00;99.90
14349;DHT22;7258;50.376;8.742;2023-08-06T01:32:16;16.00;99.90
14349;DHT22;7258;50.376;8.742;2023-08-06T01:34:22;16.00;99.90
14349;DHT22;7258;50.376;8.742;2023-08-06T01:36:26;16.00;99.90
14349;DHT22;7258;50.376;8.742;2023-08-06T01:38:32;16.00;99.90
14349;DHT22;7258;50.376;8.742;2023-08-06T01:40:35;16.00;99.90
14349;DHT22;7258;50.376;8.742;2023-08-06T01:42:38;15.90;99.90
14349;DHT22;7258;50.376;8.742;2023-08-06T01:44:41;15.90;99.90
14349;DHT22;7258;50.376;8.742;2023-08-06T01:46:44;15.90;99.90
14349;DHT22;7258;50.376;8.742;2023-08-06T01:48:47;15.90;99.90
14349;DHT22;7258;50.376;8.742;2023-08-06T01:50:49;15.90;99.90
14349;DHT22;7258;50.376;8.742;2023-08-06T01:52:52;15.90;99.90
14349;DHT22;7258;50.376;8.742;2023-08-06T01:54:56;15.90;99.90
14349;DHT22;7258;50.376;8.742;2023-08-06T01:56:59;15.90;99.90
14349;DHT22;7258;50.376;8.742;2023-08-06T01:59:02;15.90;99.90
14349;DHT22;7258;50.376;8.742;2023-08-06T02:01:06;15.80;99.90
14349;DHT22;7258;50.376;8.742;2023-08-06T02:03:09;15.80;99.90
14349;DHT22;7258;50.376;8.742;2023-08-06T02:05:11;15.80;99.90
14349;DHT22;7258;50.376;8.742;2023-08-06T02:07:14;15.80;99.90
14349;DHT22;7258;50.376;8.742;2023-08-06T02:09:18;15.70;99.90
14349;DHT22;7258;50.376;8.742;2023-08-06T02:11:23;15.70;99.90
14349;DHT22;7258;50.376;8.742;2023-08-06T02:13:25;15.70;99.90
14349;DHT22;7258;50.376;8.742;2023-08-06T02:15:28;15.70;99.90
14349;DHT22;7258;50.376;8.742;2023-08-06T02:17:31;15.70;99.90
14349;DHT22;7258;50.376;8.742;2023-08-06T02:19:34;15.70;99.90
14349;DHT22;7258;50.376;8.742;2023-08-06T02:21:37;15.70;99.90
14349;DHT22;7258;50.376;8.742;2023-08-06T02:23:40;15.70;99.90
14349;DHT22;7258;50.376;8.742;2023-08-06T02:25:43;15.70;99.90
14349;DHT22;7258;50.376;8.742;2023-08-06T02:27:47;15.70;99.90
14349;DHT22;7258;50.376;8.742;2023-08-06T02:29:50;15.70;99.90
14349;DHT22;7258;50.376;8.742;2023-08-06T02:31:53;15.70;99.90
14349;DHT22;7258;50.376;8.742;2023-08-06T02:33:56;15.70;99.90
14349;DHT22;7258;50.376;8.742;2023-08-06T02:36:00;15.70;99.90
14349;DHT22;7258;50.376;8.742;2023-08-06T02:38:03;15.70;99.90
14349;DHT22;7258;50.376;8.742;2023-08-06T02:40:07;15.70;99.90
14349;DHT22;7258;50.376;8.742;2023-08-06T02:42:10;15.70;99.90
14349;DHT22;7258;50.376;8.742;2023-08-06T02:44:14;15.70;99.90
14349;DHT22;7258;50.376;8.742;2023-08-06T02:46:19;15.70;99.90
14349;DHT22;7258;50.376;8.742;2023-08-06T02:48:22;15.70;99.90
14349;DHT22;7258;50.376;8.742;2023-08-06T02:50:24;15.70;99.90
14349;DHT22;7258;50.376;8.742;2023-08-06T02:52:26;15.70;99.90
14349;DHT22;7258;50.376;8.742;2023-08-06T02:54:29;15.70;99.90
14349;DHT22;7258;50.376;8.742;2023-08-06T02:56:32;15.70;99.90
14349;DHT22;7258;50.376;8.742;2023-08-06T02:58:35;15.70;99.90
14349;DHT22;7258;50.376;8.742;2023-08-06T03:00:39;15.70;99.90
14349;DHT22;7258;50.376;8.742;2023-08-06T03:02:41;15.70;99.90
14349;DHT22;7258;50.376;8.742;2023-08-06T03:04:44;15.70;99.90
14349;DHT22;7258;50.376;8.742;2023-08-06T03:06:49;15.70;99.90
14349;DHT22;7258;50.376;8.742;2023-08-06T03:08:52;15.70;99.90
14349;DHT22;7258;50.376;8.742;2023-08-06T03:10:54;15.70;99.90
14349;DHT22;7258;50.376;8.742;2023-08-06T03:12:56;15.70;99.90
14349;DHT22;7258;50.376;8.742;2023-08-06T03:14:59;15.70;99.90
14349;DHT22;7258;50.376;8.742;2023-08-06T03:17:03;15.70;99.90
14349;DHT22;7258;50.376;8.742;2023-08-06T03:19:06;15.70;99.90
14349;DHT22;7258;50.376;8.742;2023-08-06T03:21:08;15.70;99.90
14349;DHT22;7258;50.376;8.742;2023-08-06T03:23:11;15.70;99.90
14349;DHT22;7258;50.376;8.742;2023-08-06T03:25:14;15.60;99.90
14349;DHT22;7258;50.376;8.742;2023-08-06T03:27:17;15.60;99.90
14349;DHT22;7258;50.376;8.742;2023-08-06T03:29:20;15.60;99.90
14349;DHT22;7258;50.376;8.742;2023-08-06T03:31:24;15.60;99.90
14349;DHT22;7258;50.376;8.742;2023-08-06T03:33:27;15.60;99.90
14349;DHT22;7258;50.376;8.742;2023-08-06T03:35:30;15.60;99.90
14349;DHT22;7258;50.376;8.742;2023-08-06T03:37:33;15.50;99.90
14349;DHT22;7258;50.376;8.742;2023-08-06T03:39:36;15.50;99.90
14349;DHT22;7258;50.376;8.742;2023-08-06T03:41:38;15.50;99.90
14349;DHT22;7258;50.376;8.742;2023-08-06T03:43:41;15.50;99.90
14349;DHT22;7258;50.376;8.742;2023-08-06T03:45:44;15.40;99.90
14349;DHT22;7258;50.376;8.742;2023-08-06T03:47:49;15.40;99.90
14349;DHT22;7258;50.376;8.742;2023-08-06T03:49:54;15.40;99.90
14349;DHT22;7258;50.376;8.742;2023-08-06T03:51:57;15.40;99.90
14349;DHT22;7258;50.376;8.742;2023-08-06T03:53:59;15.40;99.90
14349;DHT22;7258;50.376;8.742;2023-08-06T03:56:02;15.40;99.90
14349;DHT22;7258;50.376;8.742;2023-08-06T03:58:05;15.40;99.90
14349;DHT22;7258;50.376;8.742;2023-08-06T04:00:09;15.40;99.90
14349;DHT22;7258;50.376;8.742;2023-08-06T04:02:12;15.40;99.90
14349;DHT22;7258;50.376;8.742;2023-08-06T04:04:15;15.40;99.90
14349;DHT22;7258;50.376;8.742;2023-08-06T04:06:19;15.40;99.90
14349;DHT22;7258;50.376;8.742;2023-08-06T04:08:22;15.40;99.90
14349;DHT22;7258;50.376;8.742;2023-08-06T04:10:25;15.40;99.90
14349;DHT22;7258;50.376;8.742;2023-08-06T04:12:28;15.40;99.90
14349;DHT22;7258;50.376;8.742;2023-08-06T04:14:31;15.40;99.90
14349;DHT22;7258;50.376;8.742;2023-08-06T04:16:34;15.40;99.90
14349;DHT22;7258;50.376;8.742;2023-08-06T04:18:44;15.40;99.90
14349;DHT22;7258;50.376;8.742;2023-08-06T04:20:48;15.50;99.90
14349;DHT22;7258;50.376;8.742;2023-08-06T04:22:58;15.50;99.90
14349;DHT22;7258;50.376;8.742;2023-08-06T04:25:01;15.50;99.90
14349;DHT22;7258;50.376;8.742;2023-08-06T04:27:06;15.50;99.90
14349;DHT22;7258;50.376;8.742;2023-08-06T04:29:11;15.60;99.90
14349;DHT22;7258;50.376;8.742;2023-08-06T04:31:14;15.60;99.90
14349;DHT22;7258;50.376;8.742;2023-08-06T04:33:21;15.50;99.90
14349;DHT22;7258;50.376;8.742;2023-08-06T04:35:29;15.60;99.90
14349;DHT22;7258;50.376;8.742;2023-08-06T04:37:38;15.60;99.90
14349;DHT22;7258;50.376;8.742;2023-08-06T04:39:44;15.60;99.90
14349;DHT22;7258;50.376;8.742;2023-08-06T04:42:06;15.60;99.90
14349;DHT22;7258;50.376;8.742;2023-08-06T04:46:45;15.60;99.90
14349;DHT22;7258;50.376;8.742;2023-08-06T04:49:11;15.60;99.90
14349;DHT22;7258;50.376;8.742;2023-08-06T04:51:19;15.70;99.90
14349;DHT22;7258;50.376;8.742;2023-08-06T04:53:22;15.70;99.90
14349;DHT22;7258;50.376;8.742;2023-08-06T04:55:42;15.70;99.90
14349;DHT22;7258;50.376;8.742;2023-08-06T04:57:45;15.70;99.90
14349;DHT22;7258;50.376;8.742;2023-08-06T05:00:06;15.70;99.90
14349;DHT22;7258;50.376;8.742;2023-08-06T05:02:12;15.70;99.90
14349;DHT22;7258;50.376;8.742;2023-08-06T05:04:21;15.70;99.90
14349;DHT22;7258;50.376;8.742;2023-08-06T05:06:33;15.70;99.90
14349;DHT22;7258;50.376;8.742;2023-08-06T05:08:36;15.70;99.90
14349;DHT22;7258;50.376;8.742;2023-08-06T05:10:42;15.70;99.90
14349;DHT22;7258;50.376;8.742;2023-08-06T05:12:51;15.70;99.90
14349;DHT22;7258;50.376;8.742;2023-08-06T05:15:05;15.70;99.90
14349;DHT22;7258;50.376;8.742;2023-08-06T05:17:11;15.60;99.90
14349;DHT22;7258;50.376;8.742;2023-08-06T05:19:18;15.70;99.90
14349;DHT22;7258;50.376;8.742;2023-08-06T05:21:22;15.70;99.90
14349;DHT22;7258;50.376;8.742;2023-08-06T05:23:25;15.70;99.90
14349;DHT22;7258;50.376;8.742;2023-08-06T05:25:30;15.70;99.90
14349;DHT22;7258;50.376;8.742;2023-08-06T05:27:34;15.80;99.90
14349;DHT22;7258;50.376;8.742;2023-08-06T05:29:41;15.80;99.90
14349;DHT22;7258;50.376;8.742;2023-08-06T05:31:54;15.80;99.90
14349;DHT22;7258;50.376;8.742;2023-08-06T05:33:59;15.90;99.90
14349;DHT22;7258;50.376;8.742;2023-08-06T05:36:04;16.00;99.90
14349;DHT22;7258;50.376;8.742;2023-08-06T05:38:07;16.10;99.90
14349;DHT22;7258;50.376;8.742;2023-08-06T05:40:32;16.10;99.90
14349;DHT22;7258;50.376;8.742;2023-08-06T05:42:59;16.10;99.90
14349;DHT22;7258;50.376;8.742;2023-08-06T05:45:07;16.20;99.90
14349;DHT22;7258;50.376;8.742;2023-08-06T05:47:25;16.30;99.90
14349;DHT22;7258;50.376;8.742;2023-08-06T05:49:28;16.40;99.90
14349;DHT22;7258;50.376;8.742;2023-08-06T05:51:31;16.40;99.90
14349;DHT22;7258;50.376;8.742;2023-08-06T05:53:34;16.40;99.90
14349;DHT22;7258;50.376;8.742;2023-08-06T05:55:39;16.40;99.90
14349;DHT22;7258;50.376;8.742;2023-08-06T05:57:45;16.30;99.90
14349;DHT22;7258;50.376;8.742;2023-08-06T05:59:54;16.30;99.90
14349;DHT22;7258;50.376;8.742;2023-08-06T06:02:03;16.30;99.90
14349;DHT22;7258;50.376;8.742;2023-08-06T06:04:08;16.20;99.90
14349;DHT22;7258;50.376;8.742;2023-08-06T06:06:11;16.10;99.90
14349;DHT22;7258;50.376;8.742;2023-08-06T06:08:21;16.10;99.90
14349;DHT22;7258;50.376;8.742;2023-08-06T06:10:48;16.00;99.90
14349;DHT22;7258;50.376;8.742;2023-08-06T06:12:57;16.10;99.90
14349;DHT22;7258;50.376;8.742;2023-08-06T06:15:01;16.00;99.90
14349;DHT22;7258;50.376;8.742;2023-08-06T06:17:15;16.10;99.90
14349;DHT22;7258;50.376;8.742;2023-08-06T06:19:21;16.20;99.90
14349;DHT22;7258;50.376;8.742;2023-08-06T06:21:37;16.20;99.90
14349;DHT22;7258;50.376;8.742;2023-08-06T06:23:45;16.20;99.90
14349;DHT22;7258;50.376;8.742;2023-08-06T06:25:50;16.20;99.90
14349;DHT22;7258;50.376;8.742;2023-08-06T06:27:53;16.20;99.90
14349;DHT22;7258;50.376;8.742;2023-08-06T06:29:58;16.30;99.90
14349;DHT22;7258;50.376;8.742;2023-08-06T06:32:04;16.30;99.90
14349;DHT22;7258;50.376;8.742;2023-08-06T06:34:14;16.30;99.90
14349;DHT22;7258;50.376;8.742;2023-08-06T06:36:25;16.40;99.90
14349;DHT22;7258;50.376;8.742;2023-08-06T06:38:35;16.50;99.90
14349;DHT22;7258;50.376;8.742;2023-08-06T06:40:40;16.60;99.90
14349;DHT22;7258;50.376;8.742;2023-08-06T06:42:47;16.70;99.90
14349;DHT22;7258;50.376;8.742;2023-08-06T06:44:56;16.70;99.90
14349;DHT22;7258;50.376;8.742;2023-08-06T06:46:59;16.60;99.90
14349;DHT22;7258;50.376;8.742;2023-08-06T06:49:03;16.60;99.90
14349;DHT22;7258;50.376;8.742;2023-08-06T06:51:21;16.50;99.90
14349;DHT22;7258;50.376;8.742;2023-08-06T06:53:38;16.50;99.90
14349;DHT22;7258;50.376;8.742;2023-08-06T06:56:18;16.40;99.90
14349;DHT22;7258;50.376;8.742;2023-08-06T06:58:23;16.40;99.90
14349;DHT22;7258;50.376;8.742;2023-08-06T07:00:27;16.40;99.90
14349;DHT22;7258;50.376;8.742;2023-08-06T07:02:30;16.30;99.90
14349;DHT22;7258;50.376;8.742;2023-08-06T07:04:34;16.20;99.90
14349;DHT22;7258;50.376;8.742;2023-08-06T07:06:37;16.10;99.90
14349;DHT22;7258;50.376;8.742;2023-08-06T07:08:40;15.90;99.90
14349;DHT22;7258;50.376;8.742;2023-08-06T07:10:43;15.90;99.90
14349;DHT22;7258;50.376;8.742;2023-08-06T07:12:46;15.90;99.90
14349;DHT22;7258;50.376;8.742;2023-08-06T07:14:49;15.80;99.90
14349;DHT22;7258;50.376;8.742;2023-08-06T07:16:52;15.70;99.90
14349;DHT22;7258;50.376;8.742;2023-08-06T07:18:55;15.70;99.90
14349;DHT22;7258;50.376;8.742;2023-08-06T07:20:59;15.70;99.90
14349;DHT22;7258;50.376;8.742;2023-08-06T07:23:02;15.60;99.90
14349;DHT22;7258;50.376;8.742;2023-08-06T07:25:09;15.60;99.90
14349;DHT22;7258;50.376;8.742;2023-08-06T07:27:13;15.60;99.90
14349;DHT22;7258;50.376;8.742;2023-08-06T07:29:16;15.60;99.90
14349;DHT22;7258;50.376;8.742;2023-08-06T07:31:23;15.70;99.90
14349;DHT22;7258;50.376;8.742;2023-08-06T07:33:26;15.80;99.90
14349;DHT22;7258;50.376;8.742;2023-08-06T07:35:28;15.90;99.90
14349;DHT22;7258;50.376;8.742;2023-08-06T07:37:33;15.90;99.90
14349;DHT22;7258;50.376;8.742;2023-08-06T07:39:36;16.00;99.90
14349;DHT22;7258;50.376;8.742;2023-08-06T07:41:39;15.90;99.90
14349;DHT22;7258;50.376;8.742;2023-08-06T07:43:43;16.00;99.90
14349;DHT22;7258;50.376;8.742;2023-08-06T07:45:44;15.90;99.90
14349;DHT22;7258;50.376;8.742;2023-08-06T07:47:47;15.90;99.90
14349;DHT22;7258;50.376;8.742;2023-08-06T07:49:51;15.90;99.90
14349;DHT22;7258;50.376;8.742;2023-08-06T07:51:53;15.80;99.90
14349;DHT22;7258;50.376;8.742;2023-08-06T07:53:58;15.80;99.90
14349;DHT22;7258;50.376;8.742;2023-08-06T07:56:01;15.80;99.90
14349;DHT22;7258;50.376;8.742;2023-08-06T07:58:04;15.70;99.90
14349;DHT22;7258;50.376;8.742;2023-08-06T08:00:08;15.70;99.90
14349;DHT22;7258;50.376;8.742;2023-08-06T08:02:12;15.70;99.90
14349;DHT22;7258;50.376;8.742;2023-08-06T08:04:15;15.80;99.90
14349;DHT22;7258;50.376;8.742;2023-08-06T08:06:17;15.90;99.90
14349;DHT22;7258;50.376;8.742;2023-08-06T08:08:20;15.90;99.90
14349;DHT22;7258;50.376;8.742;2023-08-06T08:10:24;15.90;99.90
14349;DHT22;7258;50.376;8.742;2023-08-06T08:12:27;16.00;99.90
14349;DHT22;7258;50.376;8.742;2023-08-06T08:14:30;16.00;99.90
14349;DHT22;7258;50.376;8.742;2023-08-06T08:16:37;16.00;99.90
14349;DHT22;7258;50.376;8.742;2023-08-06T08:18:39;15.90;99.90
14349;DHT22;7258;50.376;8.742;2023-08-06T08:20:42;16.00;99.90
14349;DHT22;7258;50.376;8.742;2023-08-06T08:22:46;16.10;99.90
14349;DHT22;7258;50.376;8.742;2023-08-06T08:24:48;16.20;99.90
14349;DHT22;7258;50.376;8.742;2023-08-06T08:26:52;16.30;99.90
14349;DHT22;7258;50.376;8.742;2023-08-06T08:28:56;16.40;99.90
14349;DHT22;7258;50.376;8.742;2023-08-06T08:30:59;16.50;99.90
14349;DHT22;7258;50.376;8.742;2023-08-06T08:33:01;16.50;99.90
14349;DHT22;7258;50.376;8.742;2023-08-06T08:35:04;16.60;99.90
14349;DHT22;7258;50.376;8.742;2023-08-06T08:37:07;16.80;99.90
14349;DHT22;7258;50.376;8.742;2023-08-06T08:39:10;16.90;99.90
14349;DHT22;7258;50.376;8.742;2023-08-06T08:41:13;17.00;99.90
14349;DHT22;7258;50.376;8.742;2023-08-06T08:43:17;17.00;99.90
14349;DHT22;7258;50.376;8.742;2023-08-06T08:45:26;17.10;99.90
14349;DHT22;7258;50.376;8.742;2023-08-06T08:47:31;17.20;99.90
14349;DHT22;7258;50.376;8.742;2023-08-06T08:49:35;17.20;99.90
14349;DHT22;7258;50.376;8.742;2023-08-06T08:51:38;17.30;99.90
14349;DHT22;7258;50.376;8.742;2023-08-06T08:53:42;17.50;99.90
14349;DHT22;7258;50.376;8.742;2023-08-06T08:55:47;17.50;99.90
14349;DHT22;7258;50.376;8.742;2023-08-06T08:57:51;17.70;99.90
14349;DHT22;7258;50.376;8.742;2023-08-06T08:59:55;17.90;99.90
14349;DHT22;7258;50.376;8.742;2023-08-06T09:01:59;18.20;99.90
14349;DHT22;7258;50.376;8.742;2023-08-06T09:04:09;18.50;99.90
14349;DHT22;7258;50.376;8.742;2023-08-06T09:06:13;18.60;99.90
14349;DHT22;7258;50.376;8.742;2023-08-06T09:08:18;18.60;99.90
14349;DHT22;7258;50.376;8.742;2023-08-06T09:10:24;18.80;99.90
14349;DHT22;7258;50.376;8.742;2023-08-06T09:12:27;19.00;99.90
14349;DHT22;7258;50.376;8.742;2023-08-06T09:14:30;19.20;99.90
14349;DHT22;7258;50.376;8.742;2023-08-06T09:16:36;19.20;99.90
14349;DHT22;7258;50.376;8.742;2023-08-06T09:18:41;19.20;99.90
14349;DHT22;7258;50.376;8.742;2023-08-06T09:20:44;19.00;99.90
14349;DHT22;7258;50.376;8.742;2023-08-06T09:22:47;19.00;99.90
14349;DHT22;7258;50.376;8.742;2023-08-06T09:24:50;19.00;99.90
14349;DHT22;7258;50.376;8.742;2023-08-06T09:26:53;18.90;99.90
14349;DHT22;7258;50.376;8.742;2023-08-06T09:29:01;18.80;99.90
14349;DHT22;7258;50.376;8.742;2023-08-06T09:31:05;18.60;99.90
14349;DHT22;7258;50.376;8.742;2023-08-06T09:33:09;18.60;99.90
14349;DHT22;7258;50.376;8.742;2023-08-06T09:35:16;18.60;99.90
14349;DHT22;7258;50.376;8.742;2023-08-06T09:37:19;18.70;99.90
14349;DHT22;7258;50.376;8.742;2023-08-06T09:39:27;18.80;99.90
14349;DHT22;7258;50.376;8.742;2023-08-06T09:41:30;18.70;99.90
14349;DHT22;7258;50.376;8.742;2023-08-06T09:43:40;18.70;99.90
14349;DHT22;7258;50.376;8.742;2023-08-06T09:45:42;18.80;99.90
14349;DHT22;7258;50.376;8.742;2023-08-06T09:47:46;18.90;99.90
14349;DHT22;7258;50.376;8.742;2023-08-06T09:49:50;19.10;99.90
14349;DHT22;7258;50.376;8.742;2023-08-06T09:51:53;19.20;99.90
14349;DHT22;7258;50.376;8.742;2023-08-06T09:54:00;19.50;99.90
14349;DHT22;7258;50.376;8.742;2023-08-06T09:56:21;19.90;99.90
14349;DHT22;7258;50.376;8.742;2023-08-06T09:58:30;20.20;99.90
14349;DHT22;7258;50.376;8.742;2023-08-06T10:00:33;20.40;99.90
14349;DHT22;7258;50.376;8.742;2023-08-06T10:02:48;20.70;99.90
14349;DHT22;7258;50.376;8.742;2023-08-06T10:04:58;20.80;99.90
14349;DHT22;7258;50.376;8.742;2023-08-06T10:07:02;20.40;99.90
14349;DHT22;7258;50.376;8.742;2023-08-06T10:09:05;20.20;99.90
14349;DHT22;7258;50.376;8.742;2023-08-06T10:11:08;20.00;99.90
14349;DHT22;7258;50.376;8.742;2023-08-06T10:13:13;19.90;99.90
14349;DHT22;7258;50.376;8.742;2023-08-06T10:15:19;19.80;99.90
14349;DHT22;7258;50.376;8.742;2023-08-06T10:17:24;19.80;99.90
14349;DHT22;7258;50.376;8.742;2023-08-06T10:19:46;19.80;99.90
14349;DHT22;7258;50.376;8.742;2023-08-06T10:22:09;19.90;99.90
14349;DHT22;7258;50.376;8.742;2023-08-06T10:24:14;19.90;99.90
14349;DHT22;7258;50.376;8.742;2023-08-06T10:26:16;20.00;99.90
14349;DHT22;7258;50.376;8.742;2023-08-06T10:28:19;20.00;99.90
14349;DHT22;7258;50.376;8.742;2023-08-06T10:30:24;20.00;99.90
14349;DHT22;7258;50.376;8.742;2023-08-06T10:32:46;19.90;99.90
14349;DHT22;7258;50.376;8.742;2023-08-06T10:34:54;20.00;99.90
14349;DHT22;7258;50.376;8.742;2023-08-06T10:36:57;19.90;99.90
14349;DHT22;7258;50.376;8.742;2023-08-06T10:39:01;19.80;99.90
14349;DHT22;7258;50.376;8.742;2023-08-06T10:41:07;20.10;99.90
14349;DHT22;7258;50.376;8.742;2023-08-06T10:43:25;20.40;99.90
14349;DHT22;7258;50.376;8.742;2023-08-06T10:45:28;20.60;99.90
14349;DHT22;7258;50.376;8.742;2023-08-06T10:47:37;20.80;99.90
14349;DHT22;7258;50.376;8.742;2023-08-06T10:49:43;21.10;99.90
14349;DHT22;7258;50.376;8.742;2023-08-06T10:51:47;21.00;99.90
14349;DHT22;7258;50.376;8.742;2023-08-06T10:53:50;21.00;99.90
14349;DHT22;7258;50.376;8.742;2023-08-06T10:55:55;21.10;99.90
14349;DHT22;7258;50.376;8.742;2023-08-06T10:57:58;21.20;99.90
14349;DHT22;7258;50.376;8.742;2023-08-06T11:00:01;21.30;99.90
14349;DHT22;7258;50.376;8.742;2023-08-06T11:02:17;21.70;99.90
14349;DHT22;7258;50.376;8.742;2023-08-06T11:04:21;21.90;99.90
14349;DHT22;7258;50.376;8.742;2023-08-06T11:06:24;22.00;99.90
14349;DHT22;7258;50.376;8.742;2023-08-06T11:08:33;22.00;99.90
14349;DHT22;7258;50.376;8.742;2023-08-06T11:10:36;22.30;99.90
14349;DHT22;7258;50.376;8.742;2023-08-06T11:12:49;22.40;99.90
14349;DHT22;7258;50.376;8.742;2023-08-06T11:14:52;22.20;99.90
14349;DHT22;7258;50.376;8.742;2023-08-06T11:16:54;22.10;99.90
14349;DHT22;7258;50.376;8.742;2023-08-06T11:18:57;22.10;99.90
14349;DHT22;7258;50.376;8.742;2023-08-06T11:21:02;22.10;99.90
14349;DHT22;7258;50.376;8.742;2023-08-06T11:23:05;22.20;99.90
14349;DHT22;7258;50.376;8.742;2023-08-06T11:25:08;22.10;99.90
14349;DHT22;7258;50.376;8.742;2023-08-06T11:27:12;21.80;99.90
14349;DHT22;7258;50.376;8.742;2023-08-06T11:29:16;21.40;99.90
14349;DHT22;7258;50.376;8.742;2023-08-06T11:31:19;20.90;99.90
14349;DHT22;7258;50.376;8.742;2023-08-06T11:33:23;20.70;99.90
14349;DHT22;7258;50.376;8.742;2023-08-06T11:35:27;20.40;99.90
14349;DHT22;7258;50.376;8.742;2023-08-06T11:37:30;20.30;99.90
14349;DHT22;7258;50.376;8.742;2023-08-06T11:39:33;20.20;99.90
14349;DHT22;7258;50.376;8.742;2023-08-06T11:41:36;20.20;99.90
14349;DHT22;7258;50.376;8.742;2023-08-06T11:43:41;20.10;99.90
14349;DHT22;7258;50.376;8.742;2023-08-06T11:45:49;20.00;99.90
14349;DHT22;7258;50.376;8.742;2023-08-06T11:47:53;20.00;99.90
14349;DHT22;7258;50.376;8.742;2023-08-06T11:49:56;20.00;99.90
14349;DHT22;7258;50.376;8.742;2023-08-06T11:51:59;20.00;99.90
14349;DHT22;7258;50.376;8.742;2023-08-06T11:54:00;20.00;99.90
14349;DHT22;7258;50.376;8.742;2023-08-06T11:56:04;20.10;99.90
14349;DHT22;7258;50.376;8.742;2023-08-06T11:58:09;20.20;99.90
14349;DHT22;7258;50.376;8.742;2023-08-06T12:00:13;20.20;99.90
14349;DHT22;7258;50.376;8.742;2023-08-06T12:02:17;20.00;99.90
14349;DHT22;7258;50.376;8.742;2023-08-06T12:04:25;19.70;99.90
14349;DHT22;7258;50.376;8.742;2023-08-06T12:06:28;19.10;99.90
14349;DHT22;7258;50.376;8.742;2023-08-06T12:08:31;18.70;99.90
14349;DHT22;7258;50.376;8.742;2023-08-06T12:10:34;18.10;99.90
14349;DHT22;7258;50.376;8.742;2023-08-06T12:12:36;16.80;99.90
14349;DHT22;7258;50.376;8.742;2023-08-06T12:14:40;16.10;99.90
14349;DHT22;7258;50.376;8.742;2023-08-06T12:16:42;15.70;99.90
14349;DHT22;7258;50.376;8.742;2023-08-06T12:18:47;15.40;99.90
14349;DHT22;7258;50.376;8.742;2023-08-06T12:20:51;15.20;99.90
14349;DHT22;7258;50.376;8.742;2023-08-06T12:22:53;15.10;99.90
14349;DHT22;7258;50.376;8.742;2023-08-06T12:25:00;15.00;99.90
14349;DHT22;7258;50.376;8.742;2023-08-06T12:27:02;15.00;99.90
14349;DHT22;7258;50.376;8.742;2023-08-06T12:29:05;14.90;99.90
14349;DHT22;7258;50.376;8.742;2023-08-06T12:31:08;15.00;99.90
14349;DHT22;7258;50.376;8.742;2023-08-06T12:33:11;14.90;99.90
14349;DHT22;7258;50.376;8.742;2023-08-06T12:35:15;14.80;99.90
14349;DHT22;7258;50.376;8.742;2023-08-06T12:37:18;14.70;99.90
14349;DHT22;7258;50.376;8.742;2023-08-06T12:39:21;14.70;99.90
14349;DHT22;7258;50.376;8.742;2023-08-06T12:41:22;14.70;99.90
14349;DHT22;7258;50.376;8.742;2023-08-06T12:43:26;14.60;99.90
14349;DHT22;7258;50.376;8.742;2023-08-06T12:45:28;14.60;99.90
14349;DHT22;7258;50.376;8.742;2023-08-06T12:47:31;14.60;99.90
14349;DHT22;7258;50.376;8.742;2023-08-06T12:49:34;14.50;99.90
14349;DHT22;7258;50.376;8.742;2023-08-06T12:51:38;14.40;99.90
14349;DHT22;7258;50.376;8.742;2023-08-06T12:53:41;14.40;99.90
14349;DHT22;7258;50.376;8.742;2023-08-06T12:55:44;14.30;99.90
14349;DHT22;7258;50.376;8.742;2023-08-06T12:57:46;14.30;99.90
14349;DHT22;7258;50.376;8.742;2023-08-06T12:59:59;14.30;99.90
14349;DHT22;7258;50.376;8.742;2023-08-06T13:02:02;14.20;99.90
14349;DHT22;7258;50.376;8.742;2023-08-06T13:04:05;14.20;99.90
14349;DHT22;7258;50.376;8.742;2023-08-06T13:06:22;14.10;99.90
14349;DHT22;7258;50.376;8.742;2023-08-06T13:08:27;14.10;99.90
14349;DHT22;7258;50.376;8.742;2023-08-06T13:10:29;14.10;99.90
14349;DHT22;7258;50.376;8.742;2023-08-06T13:12:33;14.00;99.90
14349;DHT22;7258;50.376;8.742;2023-08-06T13:14:35;14.00;99.90
14349;DHT22;7258;50.376;8.742;2023-08-06T13:16:40;14.00;99.90
14349;DHT22;7258;50.376;8.742;2023-08-06T13:18:43;14.00;99.90
14349;DHT22;7258;50.376;8.742;2023-08-06T13:20:45;14.00;99.90
14349;DHT22;7258;50.376;8.742;2023-08-06T13:22:51;13.90;99.90
14349;DHT22;7258;50.376;8.742;2023-08-06T13:24:56;13.90;99.90